Time;durP1;ratioP1;P1;durP2;ratioP2;P2;SDS_P1;SDS_P2;PMS_P1;PMS_P2;Temp;Humidity;BMP_temperature;BMP_pressure;BME280_temperature;BME280_humidity;BME280_pressure;Samples;Min_cycle;Max_cycle;Signal;HPM_P1;HPM_P2
2023/05/01 00:00:57;;;;;;;8.70;5.57;;;;;;;;;;5057633;28;20063;-75
2023/05/01 00:03:23;;;;;;;6.35;4.95;;;;;;;;;;5056871;28;20053;-74
2023/05/01 00:05:49;;;;;;;8.93;5.95;;;;;;;;;;5060311;28;20041;-74
2023/05/01 00:08:15;;;;;;;8.88;5.22;;;;;;;;;;5057997;28;20111;-74
2023/05/01 00:10:41;;;;;;;9.52;5.25;;;;;;;;;;5056444;28;20044;-74
2023/05/01 00:13:08;;;;;;;7.90;5.63;;;;;;;;;;5055349;28;20041;-74
2023/05/01 00:15:35;;;;;;;12.10;5.00;;;;;;;;;;5064211;28;20049;-74
2023/05/01 00:18:01;;;;;;;9.15;5.75;;;;;;;;;;5058228;28;20440;-74
2023/05/01 00:20:30;;;;;;;9.63;5.20;;;;;;;;;;5069468;28;20056;-74
2023/05/01 00:22:56;;;;;;;8.05;5.18;;;;;;;;;;5043433;28;20045;-74
2023/05/01 00:25:23;;;;;;;7.57;5.38;;;;;;;;;;5054761;28;20049;-74
2023/05/01 00:27:49;;;;;;;7.80;5.10;;;;;;;;;;5054759;28;20102;-74
2023/05/01 00:30:15;;;;;;;8.68;5.20;;;;;;;;;;5054884;28;20037;-74
2023/05/01 00:32:41;;;;;;;7.82;5.20;;;;;;;;;;5059582;28;20123;-74
2023/05/01 00:35:07;;;;;;;8.70;5.10;;;;;;;;;;5054992;28;20049;-74
2023/05/01 00:37:33;;;;;;;7.53;5.28;;;;;;;;;;5054222;28;20120;-74
2023/05/01 00:39:59;;;;;;;8.57;5.47;;;;;;;;;;5054361;28;20045;-74
2023/05/01 00:42:26;;;;;;;9.27;5.47;;;;;;;;;;5053051;28;20045;-74
2023/05/01 00:44:52;;;;;;;9.30;5.50;;;;;;;;;;5054575;28;20052;-73
2023/05/01 00:47:18;;;;;;;8.07;5.60;;;;;;;;;;5054407;28;20044;-74
2023/05/01 00:49:45;;;;;;;11.10;5.53;;;;;;;;;;5071699;28;20473;-73
2023/05/01 00:52:12;;;;;;;7.78;5.10;;;;;;;;;;5066441;28;20140;-74
2023/05/01 00:54:38;;;;;;;9.23;5.68;;;;;;;;;;5054009;28;20124;-74
2023/05/01 00:57:08;;;;;;;10.32;5.63;;;;;;;;;;5058182;28;20037;-74
2023/05/01 00:59:34;;;;;;;10.32;5.20;;;;;;;;;;5058399;28;20048;-72
2023/05/01 01:02:01;;;;;;;8.00;4.97;;;;;;;;;;5065288;28;20128;-73
2023/05/01 01:04:30;;;;;;;6.97;5.28;;;;;;;;;;5074183;28;20123;-73
2023/05/01 01:07:20;;;;;;;8.25;5.45;;;;;;;;;;5072067;28;20480;-73
2023/05/01 01:10:00;;;;;;;10.55;5.72;;;;;;;;;;5074435;28;20057;-73
2023/05/01 01:12:27;;;;;;;9.63;5.30;;;;;;;;;;5058707;28;20139;-73
2023/05/01 01:15:05;;;;;;;7.35;5.25;;;;;;;;;;5054478;28;20074;-73
2023/05/01 01:17:41;;;;;;;10.35;5.63;;;;;;;;;;5073822;28;20050;-73
2023/05/01 01:20:13;;;;;;;11.70;5.50;;;;;;;;;;5053704;28;20053;-73
2023/05/01 01:22:40;;;;;;;9.40;5.95;;;;;;;;;;5075458;28;20509;-73
2023/05/01 01:25:15;;;;;;;9.13;5.65;;;;;;;;;;5058433;28;20120;-73
2023/05/01 01:28:00;;;;;;;8.82;5.82;;;;;;;;;;5056497;28;20118;-73
2023/05/01 01:30:57;;;;;;;10.02;5.45;;;;;;;;;;5053991;28;20465;-73
2023/05/01 01:33:38;;;;;;;7.95;5.53;;;;;;;;;;5053840;28;20048;-73
2023/05/01 01:36:10;;;;;;;11.68;5.50;;;;;;;;;;5058986;28;20119;-73
2023/05/01 01:38:51;;;;;;;9.07;5.70;;;;;;;;;;5072264;28;20048;-74
2023/05/01 01:41:20;;;;;;;8.82;5.30;;;;;;;;;;5071984;28;20058;-73
2023/05/01 01:43:51;;;;;;;8.32;5.63;;;;;;;;;;5067293;28;20041;-73
2023/05/01 01:46:19;;;;;;;9.07;5.90;;;;;;;;;;5072790;28;20049;-74
2023/05/01 01:48:48;;;;;;;8.82;5.72;;;;;;;;;;5061906;28;20056;-74
2023/05/01 01:51:16;;;;;;;9.35;5.40;;;;;;;;;;5073806;28;20080;-74
2023/05/01 01:53:45;;;;;;;9.85;6.07;;;;;;;;;;5072871;28;20045;-74
2023/05/01 01:56:12;;;;;;;9.63;5.57;;;;;;;;;;5071552;28;20041;-74
2023/05/01 01:58:39;;;;;;;8.23;5.05;;;;;;;;;;5073437;28;20080;-74
2023/05/01 02:01:06;;;;;;;8.52;5.80;;;;;;;;;;5052901;28;20041;-74
2023/05/01 02:03:33;;;;;;;8.63;5.78;;;;;;;;;;5052747;28;20033;-74
2023/05/01 02:06:00;;;;;;;9.95;5.72;;;;;;;;;;5053076;28;20045;-74
2023/05/01 02:08:28;;;;;;;8.20;5.57;;;;;;;;;;5053257;28;20417;-74
2023/05/01 02:10:58;;;;;;;9.60;6.03;;;;;;;;;;5060520;28;20048;-74
2023/05/01 02:13:26;;;;;;;9.73;6.10;;;;;;;;;;5069852;28;20048;-74
2023/05/01 02:15:52;;;;;;;9.60;6.20;;;;;;;;;;5053108;28;20061;-74
2023/05/01 02:18:20;;;;;;;7.85;5.78;;;;;;;;;;5059780;28;20037;-74
2023/05/01 02:20:47;;;;;;;9.77;5.63;;;;;;;;;;5072259;28;20049;-74
2023/05/01 02:23:13;;;;;;;9.55;6.30;;;;;;;;;;5054647;28;20084;-74
2023/05/01 02:25:40;;;;;;;9.75;5.80;;;;;;;;;;5062135;28;20040;-74
2023/05/01 02:28:12;;;;;;;11.13;6.30;;;;;;;;;;5072981;28;20037;-74
2023/05/01 02:30:38;;;;;;;10.15;6.13;;;;;;;;;;5073156;28;20080;-74
2023/05/01 02:33:07;;;;;;;11.98;6.05;;;;;;;;;;5071672;28;20119;-74
2023/05/01 02:35:38;;;;;;;9.80;5.65;;;;;;;;;;5066942;28;20037;-74
2023/05/01 02:38:05;;;;;;;8.30;5.93;;;;;;;;;;5053351;28;20048;-74
2023/05/01 02:40:31;;;;;;;10.85;6.55;;;;;;;;;;5053215;28;20044;-74
2023/05/01 02:42:59;;;;;;;9.52;6.10;;;;;;;;;;5055018;28;20049;-74
2023/05/01 02:45:25;;;;;;;10.82;5.97;;;;;;;;;;5072582;28;20041;-74
2023/05/01 02:47:54;;;;;;;11.88;6.20;;;;;;;;;;5056199;28;20041;-74
2023/05/01 02:50:21;;;;;;;13.60;6.22;;;;;;;;;;5052999;28;20044;-74
2023/05/01 02:52:47;;;;;;;11.00;6.20;;;;;;;;;;5053061;28;20059;-74
2023/05/01 02:55:14;;;;;;;11.35;6.20;;;;;;;;;;5052492;28;20049;-74
2023/05/01 02:57:41;;;;;;;10.52;5.53;;;;;;;;;;5055459;28;20048;-74
2023/05/01 03:00:12;;;;;;;10.13;5.97;;;;;;;;;;5056430;28;20049;-73
2023/05/01 03:02:39;;;;;;;10.27;5.95;;;;;;;;;;5056590;28;20052;-74
2023/05/01 03:05:05;;;;;;;10.52;6.60;;;;;;;;;;5069260;28;20360;-74
2023/05/01 03:07:34;;;;;;;9.73;5.70;;;;;;;;;;5076349;28;20036;-74
2023/05/01 03:10:04;;;;;;;8.90;6.20;;;;;;;;;;5076188;28;20048;-74
2023/05/01 03:12:30;;;;;;;9.82;5.55;;;;;;;;;;5076270;28;20051;-74
2023/05/01 03:14:56;;;;;;;11.90;6.00;;;;;;;;;;5066754;28;20045;-74
2023/05/01 03:17:22;;;;;;;12.15;6.13;;;;;;;;;;5056554;28;20033;-73
2023/05/01 03:19:48;;;;;;;9.40;6.15;;;;;;;;;;5055960;28;20080;-74
2023/05/01 03:22:15;;;;;;;12.15;6.40;;;;;;;;;;5055626;28;20111;-74
2023/05/01 03:24:41;;;;;;;9.38;5.32;;;;;;;;;;5055815;28;20045;-74
2023/05/01 03:27:07;;;;;;;9.10;6.32;;;;;;;;;;5056338;28;20041;-74
2023/05/01 03:29:34;;;;;;;8.40;6.30;;;;;;;;;;5069332;28;20041;-73
2023/05/01 03:32:00;;;;;;;10.25;6.30;;;;;;;;;;5054451;28;20045;-74
2023/05/01 03:34:26;;;;;;;9.18;5.70;;;;;;;;;;5061760;28;20040;-73
2023/05/01 03:36:53;;;;;;;8.65;5.88;;;;;;;;;;5073501;28;20037;-74
2023/05/01 03:39:19;;;;;;;8.88;5.47;;;;;;;;;;5076092;28;20041;-73
2023/05/01 03:41:45;;;;;;;9.85;5.97;;;;;;;;;;5074623;28;20045;-74
2023/05/01 03:44:11;;;;;;;10.50;6.13;;;;;;;;;;5069003;28;20049;-74
2023/05/01 03:46:37;;;;;;;8.32;5.63;;;;;;;;;;5065775;28;20110;-73
2023/05/01 03:49:04;;;;;;;11.07;6.30;;;;;;;;;;5075930;28;20044;-73
2023/05/01 03:51:30;;;;;;;8.27;6.20;;;;;;;;;;5075761;28;20051;-74
2023/05/01 03:53:57;;;;;;;10.93;6.40;;;;;;;;;;5070426;28;20422;-74
2023/05/01 03:56:24;;;;;;;11.90;6.78;;;;;;;;;;5064263;28;20052;-74
2023/05/01 03:58:51;;;;;;;10.85;5.60;;;;;;;;;;5060636;28;20430;-73
2023/05/01 04:01:17;;;;;;;12.93;6.28;;;;;;;;;;5055258;28;20123;-74
2023/05/01 04:03:44;;;;;;;10.38;6.32;;;;;;;;;;5055729;28;20047;-73
2023/05/01 04:06:11;;;;;;;11.77;5.80;;;;;;;;;;5055192;28;20047;-73
2023/05/01 04:08:37;;;;;;;9.73;5.97;;;;;;;;;;5054412;28;20506;-74
2023/05/01 04:11:03;;;;;;;11.68;6.20;;;;;;;;;;5055186;28;20387;-73
2023/05/01 04:13:29;;;;;;;9.55;5.82;;;;;;;;;;5055343;28;20136;-74
2023/05/01 04:15:58;;;;;;;11.52;5.93;;;;;;;;;;5055046;28;20041;-74
2023/05/01 04:18:24;;;;;;;7.93;5.78;;;;;;;;;;5054825;28;20505;-74
2023/05/01 04:20:51;;;;;;;10.55;7.00;;;;;;;;;;5054482;28;20053;-74
2023/05/01 04:23:17;;;;;;;10.68;5.80;;;;;;;;;;5054626;28;20411;-74
2023/05/01 04:25:43;;;;;;;9.88;6.10;;;;;;;;;;5070221;28;20036;-74
2023/05/01 04:28:12;;;;;;;8.57;6.00;;;;;;;;;;5073595;28;20105;-74
2023/05/01 04:30:38;;;;;;;9.32;6.40;;;;;;;;;;5074949;28;20119;-74
2023/05/01 04:33:11;;;;;;;11.40;6.47;;;;;;;;;;5071614;28;20065;-74
2023/05/01 04:35:38;;;;;;;10.85;6.15;;;;;;;;;;5073439;28;20040;-74
2023/05/01 04:38:04;;;;;;;8.43;5.65;;;;;;;;;;5075294;28;20040;-74
2023/05/01 04:40:30;;;;;;;8.70;5.95;;;;;;;;;;5077598;28;20520;-74
2023/05/01 04:42:56;;;;;;;9.10;6.07;;;;;;;;;;5074777;28;20127;-74
2023/05/01 04:45:23;;;;;;;11.68;6.25;;;;;;;;;;5074028;28;20040;-74
2023/05/01 04:47:49;;;;;;;10.82;6.38;;;;;;;;;;5054675;28;20059;-73
2023/05/01 04:50:15;;;;;;;10.55;6.10;;;;;;;;;;5053319;28;20348;-74
2023/05/01 04:52:41;;;;;;;11.05;7.05;;;;;;;;;;5054209;28;20521;-73
2023/05/01 04:55:08;;;;;;;10.48;6.68;;;;;;;;;;5053216;28;20128;-74
2023/05/01 04:57:34;;;;;;;12.52;6.80;;;;;;;;;;5062075;28;20406;-74
2023/05/01 05:00:00;;;;;;;10.70;6.07;;;;;;;;;;5063721;28;20037;-74
2023/05/01 05:02:26;;;;;;;13.13;6.45;;;;;;;;;;5052944;28;20383;-73
2023/05/01 05:04:53;;;;;;;10.13;6.35;;;;;;;;;;5052415;28;20171;-74
2023/05/01 05:07:19;;;;;;;12.82;6.32;;;;;;;;;;5052870;28;20411;-74
2023/05/01 05:09:45;;;;;;;10.52;6.85;;;;;;;;;;5054211;28;20040;-74
2023/05/01 05:12:13;;;;;;;12.63;6.63;;;;;;;;;;5059136;28;20040;-74
2023/05/01 05:14:39;;;;;;;12.38;6.70;;;;;;;;;;5069592;28;20056;-74
2023/05/01 05:17:06;;;;;;;11.43;6.75;;;;;;;;;;5067860;28;20044;-74
2023/05/01 05:19:32;;;;;;;10.95;6.55;;;;;;;;;;5072647;28;20048;-74
2023/05/01 05:21:58;;;;;;;10.23;6.72;;;;;;;;;;5073880;28;20128;-75
2023/05/01 05:24:24;;;;;;;11.05;6.15;;;;;;;;;;5072862;28;20090;-74
2023/05/01 05:26:50;;;;;;;10.68;6.65;;;;;;;;;;5072991;28;20055;-74
2023/05/01 05:29:17;;;;;;;9.65;7.03;;;;;;;;;;5073569;28;20502;-74
2023/05/01 05:31:43;;;;;;;11.00;6.43;;;;;;;;;;5054132;28;20041;-74
2023/05/01 05:34:09;;;;;;;12.13;6.05;;;;;;;;;;5059787;28;20041;-74
2023/05/01 05:36:35;;;;;;;11.82;6.70;;;;;;;;;;5073892;28;20052;-74
2023/05/01 05:39:02;;;;;;;12.63;6.35;;;;;;;;;;5053788;28;20174;-74
2023/05/01 05:41:28;;;;;;;12.48;6.65;;;;;;;;;;5053434;28;20478;-74
2023/05/01 05:43:54;;;;;;;10.20;6.55;;;;;;;;;;5053374;28;20045;-74
2023/05/01 05:46:20;;;;;;;9.23;6.55;;;;;;;;;;5070219;28;20064;-74
2023/05/01 05:48:46;;;;;;;9.95;6.22;;;;;;;;;;5057667;28;20076;-74
2023/05/01 05:51:13;;;;;;;10.63;6.53;;;;;;;;;;5053607;28;20049;-74
2023/05/01 05:53:39;;;;;;;9.77;6.40;;;;;;;;;;5053197;28;20138;-74
2023/05/01 05:56:05;;;;;;;10.98;6.28;;;;;;;;;;5053513;28;20045;-74
2023/05/01 05:58:31;;;;;;;10.60;6.88;;;;;;;;;;5052721;28;20495;-76
2023/05/01 06:00:57;;;;;;;9.57;6.03;;;;;;;;;;5063141;28;20220;-74
2023/05/01 06:03:23;;;;;;;10.27;6.57;;;;;;;;;;5053400;28;20478;-74
2023/05/01 06:05:49;;;;;;;11.02;6.30;;;;;;;;;;5053496;28;20056;-75
2023/05/01 06:08:15;;;;;;;12.40;6.55;;;;;;;;;;5059187;28;20041;-74
2023/05/01 06:10:42;;;;;;;11.55;6.20;;;;;;;;;;5071085;28;20049;-74
2023/05/01 06:13:09;;;;;;;10.00;6.68;;;;;;;;;;5068440;28;20477;-74
2023/05/01 06:15:38;;;;;;;9.05;6.47;;;;;;;;;;5070340;28;20079;-74
2023/05/01 06:18:04;;;;;;;10.40;6.13;;;;;;;;;;5064746;28;20043;-74
2023/05/01 06:20:33;;;;;;;11.10;6.70;;;;;;;;;;5068777;28;20057;-73
2023/05/01 06:22:59;;;;;;;10.73;6.20;;;;;;;;;;5073197;28;20053;-73
2023/05/01 06:25:25;;;;;;;9.32;6.70;;;;;;;;;;5072930;28;20041;-73
2023/05/01 06:27:51;;;;;;;10.10;6.05;;;;;;;;;;5063210;28;20059;-74
2023/05/01 06:30:18;;;;;;;10.60;6.65;;;;;;;;;;5052114;28;20594;-74
2023/05/01 06:32:45;;;;;;;9.90;6.07;;;;;;;;;;5058679;28;20044;-74
2023/05/01 06:35:11;;;;;;;8.93;6.43;;;;;;;;;;5070839;28;20033;-74
2023/05/01 06:37:37;;;;;;;11.10;6.32;;;;;;;;;;5056575;28;20467;-74
2023/05/01 06:40:10;;;;;;;10.85;5.93;;;;;;;;;;5056770;28;20124;-74
2023/05/01 06:42:36;;;;;;;9.38;6.30;;;;;;;;;;5064197;28;20037;-74
2023/05/01 06:45:03;;;;;;;10.55;6.82;;;;;;;;;;5059452;28;20041;-74
2023/05/01 06:47:29;;;;;;;10.55;6.00;;;;;;;;;;5070169;28;20127;-74
2023/05/01 06:49:55;;;;;;;9.13;5.90;;;;;;;;;;5083608;28;20047;-74
2023/05/01 06:52:21;;;;;;;8.95;5.50;;;;;;;;;;5084991;28;20043;-74
2023/05/01 06:54:47;;;;;;;9.93;6.30;;;;;;;;;;5080450;28;20119;-74
2023/05/01 06:57:13;;;;;;;10.73;6.28;;;;;;;;;;5068074;28;20112;-74
2023/05/01 06:59:39;;;;;;;7.80;5.82;;;;;;;;;;5062404;28;20397;-74
2023/05/01 07:02:05;;;;;;;8.80;5.80;;;;;;;;;;5071342;28;20525;-74
2023/05/01 07:04:31;;;;;;;9.15;5.90;;;;;;;;;;5063523;28;20037;-78
2023/05/01 07:06:58;;;;;;;10.32;6.53;;;;;;;;;;5076517;28;20044;-76
2023/05/01 07:09:24;;;;;;;8.77;5.60;;;;;;;;;;5076073;28;20070;-74
2023/05/01 07:11:50;;;;;;;10.10;5.93;;;;;;;;;;5076043;28;20514;-74
2023/05/01 07:14:16;;;;;;;9.48;6.10;;;;;;;;;;5058011;28;20479;-74
2023/05/01 07:16:42;;;;;;;10.02;5.80;;;;;;;;;;5060558;28;20056;-74
2023/05/01 07:19:08;;;;;;;9.55;5.70;;;;;;;;;;5065201;28;20049;-74
2023/05/01 07:21:34;;;;;;;12.65;6.13;;;;;;;;;;5072170;28;20089;-74
2023/05/01 07:24:00;;;;;;;11.57;6.00;;;;;;;;;;5058667;28;20037;-74
2023/05/01 07:26:26;;;;;;;11.18;5.85;;;;;;;;;;5060871;28;20122;-74
2023/05/01 07:28:53;;;;;;;9.07;5.55;;;;;;;;;;5056215;28;20045;-74
2023/05/01 07:31:19;;;;;;;9.48;6.50;;;;;;;;;;5058511;28;20041;-73
2023/05/01 07:33:46;;;;;;;11.88;6.07;;;;;;;;;;5062964;28;20041;-73
2023/05/01 07:36:12;;;;;;;11.18;6.22;;;;;;;;;;5074663;28;20049;-75
2023/05/01 07:38:39;;;;;;;9.43;6.40;;;;;;;;;;5062222;28;20053;-74
2023/05/01 07:41:05;;;;;;;10.18;5.70;;;;;;;;;;5054095;28;20128;-74
2023/05/01 07:43:31;;;;;;;8.35;5.47;;;;;;;;;;5054641;28;20498;-74
2023/05/01 07:45:59;;;;;;;8.50;5.28;;;;;;;;;;5062500;28;20399;-74
2023/05/01 07:48:25;;;;;;;10.68;5.47;;;;;;;;;;5073824;28;20063;-74
2023/05/01 07:50:51;;;;;;;11.05;5.55;;;;;;;;;;5065716;28;20057;-74
2023/05/01 07:53:17;;;;;;;9.95;5.85;;;;;;;;;;5078349;28;20043;-74
2023/05/01 07:55:43;;;;;;;7.65;5.35;;;;;;;;;;5060989;28;20491;-75
2023/05/01 07:58:09;;;;;;;9.48;5.40;;;;;;;;;;5056982;28;20517;-75
2023/05/01 08:00:36;;;;;;;7.90;5.80;;;;;;;;;;5055476;28;20490;-75
2023/05/01 08:03:02;;;;;;;9.15;5.65;;;;;;;;;;5040256;28;20146;-75
2023/05/01 08:05:28;;;;;;;8.02;5.32;;;;;;;;;;5055019;28;20119;-75
2023/05/01 08:07:54;;;;;;;9.38;5.47;;;;;;;;;;5055406;28;20052;-74
2023/05/01 08:10:20;;;;;;;7.38;5.63;;;;;;;;;;5062442;28;20052;-74
2023/05/01 08:12:46;;;;;;;8.23;5.65;;;;;;;;;;5070899;28;20443;-76
2023/05/01 08:15:12;;;;;;;8.48;5.85;;;;;;;;;;5060677;28;20510;-76
2023/05/01 08:17:38;;;;;;;8.25;5.93;;;;;;;;;;5068673;28;21738;-76
2023/05/01 08:20:04;;;;;;;7.93;5.63;;;;;;;;;;5073579;28;20368;-76
2023/05/01 08:22:30;;;;;;;7.68;5.10;;;;;;;;;;5067804;28;20080;-76
2023/05/01 08:24:57;;;;;;;9.65;5.57;;;;;;;;;;5055104;28;20060;-76
2023/05/01 08:27:23;;;;;;;9.18;5.38;;;;;;;;;;5058785;28;20052;-75
2023/05/01 08:29:49;;;;;;;8.10;5.53;;;;;;;;;;5071229;28;20049;-75
2023/05/01 08:32:17;;;;;;;8.27;5.38;;;;;;;;;;5060918;28;20047;-75
2023/05/01 08:34:43;;;;;;;9.00;5.80;;;;;;;;;;5077230;28;20094;-75
2023/05/01 08:37:09;;;;;;;8.98;5.07;;;;;;;;;;5055149;28;20049;-75
2023/05/01 08:39:35;;;;;;;8.35;5.03;;;;;;;;;;5054965;28;20056;-75
2023/05/01 08:42:02;;;;;;;8.50;5.35;;;;;;;;;;5059487;28;20048;-74
2023/05/01 08:44:30;;;;;;;8.95;5.20;;;;;;;;;;5069526;28;20040;-73
2023/05/01 08:46:59;;;;;;;7.07;4.63;;;;;;;;;;5056334;28;20383;-73
2023/05/01 08:49:26;;;;;;;6.68;4.85;;;;;;;;;;5054494;28;20045;-74
2023/05/01 08:51:55;;;;;;;9.00;5.20;;;;;;;;;;5058920;28;20049;-74
2023/05/01 08:54:21;;;;;;;9.05;5.05;;;;;;;;;;5055250;28;20047;-74
2023/05/01 08:56:48;;;;;;;7.95;4.97;;;;;;;;;;5061416;28;20110;-74
2023/05/01 08:59:14;;;;;;;9.15;5.65;;;;;;;;;;5070315;28;20040;-74
2023/05/01 09:01:42;;;;;;;8.63;5.10;;;;;;;;;;5069629;28;20119;-74
2023/05/01 09:04:09;;;;;;;9.45;5.43;;;;;;;;;;5074281;28;20439;-74
2023/05/01 09:06:35;;;;;;;9.05;6.10;;;;;;;;;;5061268;28;20051;-74
2023/05/01 09:09:01;;;;;;;7.28;4.82;;;;;;;;;;5053851;28;20503;-73
2023/05/01 09:11:27;;;;;;;8.55;5.28;;;;;;;;;;5061521;28;20388;-73
2023/05/01 09:13:53;;;;;;;7.55;5.05;;;;;;;;;;5053997;28;20047;-73
2023/05/01 09:16:20;;;;;;;7.80;4.90;;;;;;;;;;5054600;28;20475;-73
2023/05/01 09:18:46;;;;;;;9.80;4.78;;;;;;;;;;5053697;28;20068;-74
2023/05/01 09:21:12;;;;;;;8.88;4.70;;;;;;;;;;5057319;28;20049;-74
2023/05/01 09:23:40;;;;;;;8.82;4.78;;;;;;;;;;5054137;28;20095;-73
2023/05/01 09:26:09;;;;;;;6.80;3.95;;;;;;;;;;5053583;28;20545;-73
2023/05/01 09:28:41;;;;;;;6.53;4.30;;;;;;;;;;5063326;28;20116;-74
2023/05/01 09:31:20;;;;;;;6.35;4.22;;;;;;;;;;5071135;28;20135;-73
2023/05/01 09:33:57;;;;;;;7.88;4.03;;;;;;;;;;5073102;28;20036;-74
2023/05/01 09:36:24;;;;;;;8.65;4.70;;;;;;;;;;5073835;28;20048;-74
2023/05/01 09:38:50;;;;;;;6.65;4.43;;;;;;;;;;5074214;28;20048;-74
2023/05/01 09:41:16;;;;;;;9.30;4.63;;;;;;;;;;5062494;28;20041;-74
2023/05/01 09:43:48;;;;;;;8.63;4.43;;;;;;;;;;5055388;28;20041;-76
2023/05/01 09:46:14;;;;;;;6.38;4.22;;;;;;;;;;5055725;28;20037;-74
2023/05/01 09:48:40;;;;;;;6.07;4.10;;;;;;;;;;5061493;28;20497;-74
2023/05/01 09:51:19;;;;;;;7.72;4.68;;;;;;;;;;5073881;28;20044;-74
2023/05/01 09:53:45;;;;;;;8.05;4.60;;;;;;;;;;5072176;28;20123;-74
2023/05/01 09:56:11;;;;;;;6.57;4.10;;;;;;;;;;5073568;28;20520;-74
2023/05/01 09:58:37;;;;;;;5.80;4.22;;;;;;;;;;5054726;28;20094;-74
2023/05/01 10:01:03;;;;;;;6.15;4.10;;;;;;;;;;5071762;28;20142;-74
2023/05/01 10:03:30;;;;;;;7.63;4.47;;;;;;;;;;5073630;28;20052;-74
2023/05/01 10:05:59;;;;;;;5.65;4.15;;;;;;;;;;5056717;28;20090;-75
2023/05/01 10:08:25;;;;;;;5.43;4.25;;;;;;;;;;5063910;28;20060;-75
2023/05/01 10:11:04;;;;;;;7.22;4.35;;;;;;;;;;5059236;28;20037;-75
2023/05/01 10:13:30;;;;;;;6.13;4.30;;;;;;;;;;5057380;28;20174;-75
2023/05/01 10:15:57;;;;;;;9.13;5.18;;;;;;;;;;5061857;28;20387;-75
2023/05/01 10:18:23;;;;;;;6.05;4.15;;;;;;;;;;5063966;28;20052;-74
2023/05/01 10:20:50;;;;;;;7.65;4.75;;;;;;;;;;5057037;28;20064;-74
2023/05/01 10:23:16;;;;;;;7.75;5.13;;;;;;;;;;5056823;28;20064;-75
2023/05/01 10:25:43;;;;;;;8.63;4.93;;;;;;;;;;5068535;28;20459;-75
2023/05/01 10:28:11;;;;;;;7.90;4.97;;;;;;;;;;5078655;28;20037;-75
2023/05/01 10:30:37;;;;;;;7.03;5.28;;;;;;;;;;5076093;28;20044;-74
2023/05/01 10:33:04;;;;;;;8.23;5.10;;;;;;;;;;5076802;28;20048;-74
2023/05/01 10:35:38;;;;;;;6.68;5.22;;;;;;;;;;5075663;28;20048;-75
2023/05/01 10:38:05;;;;;;;7.50;5.45;;;;;;;;;;5067226;28;20040;-74
2023/05/01 10:40:40;;;;;;;7.20;5.45;;;;;;;;;;5056985;28;20044;-74
2023/05/01 10:43:24;;;;;;;7.93;5.40;;;;;;;;;;5057223;28;20059;-74
2023/05/01 10:45:50;;;;;;;8.43;5.25;;;;;;;;;;5056823;28;20087;-74
2023/05/01 10:48:35;;;;;;;7.07;5.00;;;;;;;;;;5058630;28;20137;-74
2023/05/01 10:51:10;;;;;;;6.68;3.97;;;;;;;;;;5074020;28;20044;-74
2023/05/01 10:53:37;;;;;;;8.13;3.80;;;;;;;;;;5076678;28;20040;-74
2023/05/01 10:56:04;;;;;;;6.45;4.40;;;;;;;;;;5076509;28;20106;-74
2023/05/01 10:58:39;;;;;;;6.00;3.83;;;;;;;;;;5075407;28;20056;-74
2023/05/01 11:01:24;;;;;;;4.97;3.50;;;;;;;;;;5061435;28;20036;-75
2023/05/01 11:03:50;;;;;;;7.22;3.78;;;;;;;;;;5073260;28;20083;-75
2023/05/01 11:06:16;;;;;;;6.28;3.40;;;;;;;;;;5066735;28;20430;-75
2023/05/01 11:08:44;;;;;;;6.22;3.70;;;;;;;;;;5056375;28;20072;-75
2023/05/01 11:11:20;;;;;;;6.57;3.40;;;;;;;;;;5056537;28;20110;-75
2023/05/01 11:13:46;;;;;;;;;;;;;;;;;;5074012;28;20048;-75
2023/05/01 11:16:31;;;;;;;4.22;3.53;;;;;;;;;;5077658;28;19921;-75
2023/05/01 11:18:57;;;;;;;7.65;4.93;;;;;;;;;;5061494;28;20049;-75
2023/05/01 11:21:29;;;;;;;4.78;3.53;;;;;;;;;;5058246;28;20049;-75
2023/05/01 11:23:55;;;;;;;5.03;3.60;;;;;;;;;;5038726;28;20055;-75
2023/05/01 11:26:22;;;;;;;4.68;3.15;;;;;;;;;;5056295;28;20045;-75
2023/05/01 11:28:50;;;;;;;5.30;3.00;;;;;;;;;;5064529;28;20094;-75
2023/05/01 11:31:17;;;;;;;4.85;3.30;;;;;;;;;;5071056;28;20090;-75
2023/05/01 11:33:43;;;;;;;4.90;3.20;;;;;;;;;;5056341;28;20048;-75
2023/05/01 11:36:09;;;;;;;6.03;3.42;;;;;;;;;;5055535;28;20091;-75
2023/05/01 11:38:35;;;;;;;5.05;3.05;;;;;;;;;;5056219;28;20498;-74
2023/05/01 11:41:05;;;;;;;5.15;3.63;;;;;;;;;;5065750;28;20052;-75
2023/05/01 11:43:31;;;;;;;4.65;3.40;;;;;;;;;;5060479;28;20060;-75
2023/05/01 11:46:01;;;;;;;4.72;3.38;;;;;;;;;;5055610;28;20044;-75
2023/05/01 11:48:30;;;;;;;7.65;3.58;;;;;;;;;;5064115;28;20037;-75
2023/05/01 11:50:56;;;;;;;3.85;2.90;;;;;;;;;;5075204;28;20143;-75
2023/05/01 11:53:23;;;;;;;4.03;3.00;;;;;;;;;;5074092;28;20105;-75
2023/05/01 11:55:50;;;;;;;6.82;3.00;;;;;;;;;;5073713;28;20048;-75
2023/05/01 11:58:16;;;;;;;4.93;3.22;;;;;;;;;;5073204;28;20130;-74
2023/05/01 12:00:43;;;;;;;5.70;3.30;;;;;;;;;;5058477;28;20076;-75
2023/05/01 12:03:09;;;;;;;7.18;3.20;;;;;;;;;;5057257;28;20041;-75
2023/05/01 12:05:36;;;;;;;7.50;3.35;;;;;;;;;;5073154;28;20045;-75
2023/05/01 12:08:22;;;;;;;6.25;3.20;;;;;;;;;;5073370;28;20051;-75
2023/05/01 12:10:57;;;;;;;5.80;2.80;;;;;;;;;;5074409;28;20120;-75
2023/05/01 12:13:23;;;;;;;4.97;3.85;;;;;;;;;;5075275;28;20045;-75
2023/05/01 12:15:51;;;;;;;6.35;3.38;;;;;;;;;;5067936;28;20041;-75
2023/05/01 12:18:18;;;;;;;4.55;3.38;;;;;;;;;;5056368;28;20076;-75
2023/05/01 12:20:46;;;;;;;6.68;4.00;;;;;;;;;;5074966;28;20048;-75
2023/05/01 12:23:14;;;;;;;5.93;3.58;;;;;;;;;;5073443;28;20371;-75
2023/05/01 12:25:41;;;;;;;6.88;3.70;;;;;;;;;;5060622;28;20049;-76
2023/05/01 12:28:18;;;;;;;6.20;4.13;;;;;;;;;;5059109;28;20040;-75
2023/05/01 12:30:45;;;;;;;5.00;3.92;;;;;;;;;;5072227;28;20105;-74
2023/05/01 12:33:15;;;;;;;6.30;3.80;;;;;;;;;;5068719;28;20052;-74
2023/05/01 12:35:44;;;;;;;6.53;3.70;;;;;;;;;;5058567;28;20032;-74
2023/05/01 12:38:14;;;;;;;5.97;3.88;;;;;;;;;;5056912;28;20048;-74
2023/05/01 12:40:40;;;;;;;6.88;3.83;;;;;;;;;;5056611;28;20444;-74
2023/05/01 12:43:07;;;;;;;5.68;3.70;;;;;;;;;;5074159;28;20048;-74
2023/05/01 12:45:40;;;;;;;6.15;3.78;;;;;;;;;;5063121;28;20174;-74
2023/05/01 12:48:11;;;;;;;5.88;3.60;;;;;;;;;;5062494;28;20044;-74
2023/05/01 12:50:37;;;;;;;7.63;4.78;;;;;;;;;;5054423;28;20055;-74
2023/05/01 12:53:04;;;;;;;7.50;5.53;;;;;;;;;;5056624;28;20040;-74
2023/05/01 12:55:33;;;;;;;6.00;4.45;;;;;;;;;;5074022;28;20105;-74
2023/05/01 12:57:59;;;;;;;6.97;4.80;;;;;;;;;;5072653;28;20423;-74
2023/05/01 13:00:25;;;;;;;8.32;5.38;;;;;;;;;;5058971;28;20056;-74
2023/05/01 13:02:51;;;;;;;8.57;5.30;;;;;;;;;;5073113;28;20040;-73
2023/05/01 13:05:17;;;;;;;9.60;5.50;;;;;;;;;;5060089;28;20051;-74
2023/05/01 13:07:47;;;;;;;8.80;5.80;;;;;;;;;;5054531;28;20163;-74
2023/05/01 13:10:17;;;;;;;8.20;5.32;;;;;;;;;;5071139;28;20044;-73
2023/05/01 13:12:45;;;;;;;11.43;6.00;;;;;;;;;;5073050;28;20534;-73
2023/05/01 13:15:29;;;;;;;7.57;5.63;;;;;;;;;;5073721;28;20041;-73
2023/05/01 13:18:04;;;;;;;9.23;6.07;;;;;;;;;;5073478;28;20479;-73
2023/05/01 13:20:31;;;;;;;9.93;6.17;;;;;;;;;;5053992;28;20544;-74
2023/05/01 13:22:57;;;;;;;9.65;6.07;;;;;;;;;;5054892;28;20537;-74
2023/05/01 13:25:23;;;;;;;10.65;6.15;;;;;;;;;;5074159;28;20402;-74
2023/05/01 13:27:50;;;;;;;9.30;6.35;;;;;;;;;;5072271;28;20074;-74
2023/05/01 13:30:20;;;;;;;11.23;7.10;;;;;;;;;;5054082;28;20483;-74
2023/05/01 13:32:47;;;;;;;9.60;6.25;;;;;;;;;;5071635;28;20478;-75
2023/05/01 13:35:21;;;;;;;10.15;6.13;;;;;;;;;;5072872;28;20045;-75
2023/05/01 13:37:47;;;;;;;11.27;6.78;;;;;;;;;;5074447;28;20470;-74
2023/05/01 13:40:13;;;;;;;10.57;7.22;;;;;;;;;;5071912;28;20048;-75
2023/05/01 14:04:52;;;;;;;14.07;8.55;;;;;;;;;;5130631;27;20909;-74
2023/05/01 14:07:21;;;;;;;15.82;9.13;;;;;;;;;;5132043;28;20097;-74
2023/05/01 14:10:14;;;;;;;11.55;7.88;;;;;;;;;;5027115;28;20523;-75
2023/05/01 14:12:41;;;;;;;14.65;9.23;;;;;;;;;;5014711;28;20049;-74
2023/05/01 14:15:09;;;;;;;12.82;8.45;;;;;;;;;;5009919;28;20129;-75
2023/05/01 14:17:36;;;;;;;17.10;9.32;;;;;;;;;;5012200;28;20496;-75
2023/05/01 14:20:05;;;;;;;12.68;9.00;;;;;;;;;;5027552;28;20074;-75
2023/05/01 14:22:51;;;;;;;15.77;8.82;;;;;;;;;;5021388;28;20128;-75
2023/05/01 14:25:27;;;;;;;12.75;9.43;;;;;;;;;;5014081;28;20078;-75
2023/05/01 14:27:54;;;;;;;16.77;9.95;;;;;;;;;;5014158;28;20050;-75
2023/05/01 14:30:32;;;;;;;16.35;10.48;;;;;;;;;;5008600;28;20384;-75
2023/05/01 14:33:01;;;;;;;14.07;9.45;;;;;;;;;;5008567;28;20596;-75
2023/05/01 14:35:27;;;;;;;14.18;9.38;;;;;;;;;;5011540;28;20081;-76
2023/05/01 14:37:54;;;;;;;12.32;9.02;;;;;;;;;;5028090;28;20081;-77
2023/05/01 14:40:29;;;;;;;14.50;9.48;;;;;;;;;;5017544;28;20400;-76
2023/05/01 14:42:57;;;;;;;14.52;9.50;;;;;;;;;;5008896;28;20085;-76
2023/05/01 14:45:23;;;;;;;12.90;9.32;;;;;;;;;;5032777;28;20084;-76
2023/05/01 14:47:49;;;;;;;13.98;10.18;;;;;;;;;;5092424;28;20051;-76
2023/05/01 14:50:19;;;;;;;18.13;9.88;;;;;;;;;;5094411;28;20115;-76
2023/05/01 14:52:45;;;;;;;14.80;10.00;;;;;;;;;;5104946;28;20093;-76
2023/05/01 14:55:12;;;;;;;15.77;10.77;;;;;;;;;;5098711;28;20051;-76
2023/05/01 14:57:38;;;;;;;10.10;7.97;;;;;;;;;;5092465;28;20140;-76
2023/05/01 15:00:05;;;;;;;11.20;8.25;;;;;;;;;;5095401;28;20040;-76
2023/05/01 15:02:32;;;;;;;10.35;7.88;;;;;;;;;;5108262;28;20051;-77
2023/05/01 15:04:58;;;;;;;10.80;6.18;;;;;;;;;;5092016;28;20054;-76